Time;durP1;ratioP1;P1;durP2;ratioP2;P2;SDS_P1;SDS_P2;PMS_P1;PMS_P2;Temp;Humidity;BMP_temperature;BMP_pressure;BME280_temperature;BME280_humidity;BME280_pressure;Samples;Min_cycle;Max_cycle;Signal;HPM_P1;HPM_P2
2023/04/28 00:00:03;;;;;;;;;;;6.30;99.90;;;;;;5096398;28;20138;-70
2023/04/28 00:02:29;;;;;;;;;;;6.30;99.90;;;;;;5115316;28;20379;-70
2023/04/28 00:04:54;;;;;;;;;;;6.30;99.90;;;;;;5114645;28;19931;-70
2023/04/28 00:07:20;;;;;;;;;;;6.20;99.90;;;;;;5115415;28;19924;-70
2023/04/28 00:09:45;;;;;;;;;;;6.20;99.90;;;;;;5097115;28;19938;-70
2023/04/28 00:12:11;;;;;;;;;;;6.20;99.90;;;;;;5096079;28;20340;-70
2023/04/28 00:14:36;;;;;;;;;;;6.20;99.90;;;;;;5097186;28;20333;-70
2023/04/28 00:17:02;;;;;;;;;;;6.40;99.90;;;;;;5096522;28;19924;-70
2023/04/28 00:19:27;;;;;;;;;;;6.20;99.90;;;;;;5096019;28;19931;-70
2023/04/28 00:21:53;;;;;;;;;;;6.20;99.90;;;;;;5096612;28;19919;-70
2023/04/28 00:24:19;;;;;;;;;;;6.20;99.90;;;;;;5115189;28;19924;-70
2023/04/28 00:26:44;;;;;;;;;;;6.30;99.90;;;;;;5114403;28;19950;-70
2023/04/28 00:29:10;;;;;;;;;;;6.20;99.90;;;;;;5114786;28;20304;-70
2023/04/28 00:31:35;;;;;;;;;;;7.20;99.90;;;;;;5114828;28;20501;-70
2023/04/28 00:34:01;;;;;;;;;;;6.60;99.90;;;;;;5095560;28;19934;-72
2023/04/28 00:36:30;;;;;;;;;;;6.20;99.90;;;;;;5114944;28;20022;-72
2023/04/28 00:38:58;;;;;;;;;;;6.20;99.90;;;;;;5094135;28;20367;-72
2023/04/28 00:41:24;;;;;;;;;;;6.20;99.90;;;;;;5076025;28;19969;-72
2023/04/28 00:43:50;;;;;;;;;;;6.30;99.90;;;;;;5094212;28;20325;-72
2023/04/28 00:46:20;;;;;;;;;;;6.30;99.90;;;;;;5093421;28;19930;-72
2023/04/28 00:48:46;;;;;;;;;;;6.30;99.90;;;;;;5094386;28;20014;-72
2023/04/28 00:51:12;;;;;;;;;;;6.30;99.90;;;;;;5075983;28;19955;-71
2023/04/28 00:53:38;;;;;;;;;;;6.30;99.90;;;;;;5093569;28;19959;-72
2023/04/28 00:56:03;;;;;;;;;;;6.40;99.90;;;;;;5093749;28;20388;-72
2023/04/28 00:58:29;;;;;;;;;;;6.30;99.90;;;;;;5075483;28;19966;-71
2023/04/28 01:01:00;;;;;;;;;;;6.30;99.90;;;;;;5074683;28;20323;-72
2023/04/28 01:03:26;;;;;;;;;;;6.80;99.90;;;;;;5076048;28;19959;-72
2023/04/28 01:05:52;;;;;;;;;;;6.30;99.90;;;;;;5093872;28;19986;-72
2023/04/28 01:08:21;;;;;;;;;;;6.30;99.90;;;;;;5093003;28;19964;-71
2023/04/28 01:10:47;;;;;;;;;;;6.30;99.90;;;;;;5093875;28;19924;-72
2023/04/28 01:13:13;;;;;;;;;;;6.30;99.90;;;;;;5093350;28;19931;-72
2023/04/28 01:15:38;;;;;;;;;;;6.30;99.90;;;;;;5075001;28;19921;-72
2023/04/28 01:18:04;;;;;;;;;;;6.20;99.90;;;;;;5075435;28;20371;-72
2023/04/28 01:20:29;;;;;;;;;;;6.20;99.90;;;;;;5075799;28;19982;-71
2023/04/28 01:22:55;;;;;;;;;;;6.80;99.90;;;;;;5074618;28;19924;-72
2023/04/28 01:25:20;;;;;;;;;;;6.20;99.90;;;;;;5075768;28;20391;-71
2023/04/28 01:27:46;;;;;;;;;;;6.10;99.90;;;;;;5075304;28;19931;-72
2023/04/28 01:30:12;;;;;;;;;;;6.10;99.90;;;;;;5073916;28;19934;-72
2023/04/28 01:32:37;;;;;;;;;;;6.10;99.90;;;;;;5075532;28;19931;-72
2023/04/28 01:35:03;;;;;;;;;;;6.00;99.90;;;;;;5075058;28;20023;-72
2023/04/28 01:37:28;;;;;;;;;;;6.00;99.90;;;;;;5082920;28;20020;-72
2023/04/28 01:39:54;;;;;;;;;;;6.00;99.90;;;;;;5095193;28;19967;-72
2023/04/28 01:42:19;;;;;;;;;;;6.20;99.90;;;;;;5094419;28;20310;-72
2023/04/28 01:44:48;;;;;;;;;;;6.40;99.90;;;;;;5095359;28;19927;-71
2023/04/28 01:47:13;;;;;;;;;;;5.90;99.90;;;;;;5094756;28;20294;-72
2023/04/28 01:49:39;;;;;;;;;;;5.90;99.90;;;;;;5094465;28;19928;-71
2023/04/28 01:52:07;;;;;;;;;;;7.00;99.90;;;;;;5113358;28;20344;-72
2023/04/28 01:54:33;;;;;;;;;;;5.90;99.90;;;;;;5113490;28;20018;-72
2023/04/28 01:56:58;;;;;;;;;;;5.90;99.90;;;;;;5112520;28;19984;-72
2023/04/28 01:59:24;;;;;;;;;;;5.90;99.90;;;;;;5095051;28;19924;-72
2023/04/28 02:01:49;;;;;;;;;;;6.30;99.90;;;;;;5095146;28;19924;-71
2023/04/28 02:04:15;;;;;;;;;;;5.90;99.90;;;;;;5112531;28;19931;-71
2023/04/28 02:06:40;;;;;;;;;;;5.90;99.90;;;;;;5113612;28;19930;-72
2023/04/28 02:09:06;;;;;;;;;;;5.90;99.90;;;;;;5113058;28;19929;-72
2023/04/28 02:11:31;;;;;;;;;;;5.90;99.90;;;;;;5112777;28;19935;-71
2023/04/28 02:13:57;;;;;;;;;;;5.90;99.90;;;;;;5113067;28;19931;-71
2023/04/28 02:16:22;;;;;;;;;;;5.90;99.90;;;;;;5113398;28;20390;-72
2023/04/28 02:18:48;;;;;;;;;;;6.20;99.90;;;;;;5112694;28;19924;-72
2023/04/28 02:21:14;;;;;;;;;;;6.20;99.90;;;;;;5113195;28;19924;-72
2023/04/28 02:23:39;;;;;;;;;;;5.90;99.90;;;;;;5113326;28;19976;-72
2023/04/28 02:26:05;;;;;;;;;;;5.90;99.90;;;;;;5093869;28;19923;-72
2023/04/28 02:28:31;;;;;;;;;;;5.90;99.90;;;;;;5094631;28;20027;-72
2023/04/28 02:31:03;;;;;;;;;;;5.90;99.90;;;;;;5113067;28;19952;-71
2023/04/28 02:33:29;;;;;;;;;;;5.90;99.90;;;;;;5094075;28;19930;-72
2023/04/28 02:35:59;;;;;;;;;;;5.90;99.90;;;;;;5094820;28;20010;-71
2023/04/28 02:38:24;;;;;;;;;;;5.90;99.90;;;;;;5095082;28;19924;-72
2023/04/28 02:40:57;;;;;;;;;;;6.00;99.90;;;;;;5112160;28;19919;-71
2023/04/28 02:43:22;;;;;;;;;;;5.90;99.90;;;;;;5116408;28;19950;-71
2023/04/28 02:45:47;;;;;;;;;;;5.90;99.90;;;;;;5116512;28;20363;-72
2023/04/28 02:48:13;;;;;;;;;;;5.90;99.90;;;;;;5116751;28;19930;-71
2023/04/28 02:50:39;;;;;;;;;;;5.90;99.90;;;;;;5117202;28;19924;-72
2023/04/28 02:53:04;;;;;;;;;;;5.90;99.90;;;;;;5097749;28;19923;-72
2023/04/28 02:55:31;;;;;;;;;;;5.90;99.90;;;;;;5116846;28;19924;-71
2023/04/28 02:57:56;;;;;;;;;;;5.90;99.90;;;;;;5116473;28;19931;-72
2023/04/28 03:00:22;;;;;;;;;;;5.90;99.90;;;;;;5116064;28;19927;-72
2023/04/28 03:02:47;;;;;;;;;;;5.80;99.90;;;;;;5116740;28;20379;-71
2023/04/28 03:05:13;;;;;;;;;;;5.80;99.90;;;;;;5116306;28;20340;-71
2023/04/28 03:07:38;;;;;;;;;;;5.90;99.90;;;;;;5116095;28;19946;-71
2023/04/28 03:10:04;;;;;;;;;;;5.80;99.90;;;;;;5098026;28;20363;-71
2023/04/28 03:12:30;;;;;;;;;;;5.90;99.90;;;;;;5098594;28;19924;-72
2023/04/28 03:14:55;;;;;;;;;;;5.90;99.90;;;;;;5115056;28;19923;-72
2023/04/28 03:17:21;;;;;;;;;;;5.90;99.90;;;;;;5116441;28;19931;-71
2023/04/28 03:19:46;;;;;;;;;;;5.90;99.90;;;;;;5098051;28;19970;-72
2023/04/28 03:22:12;;;;;;;;;;;6.00;99.90;;;;;;5115407;28;20026;-72
2023/04/28 03:24:37;;;;;;;;;;;5.90;99.90;;;;;;5115806;28;20019;-72
2023/04/28 03:27:03;;;;;;;;;;;6.20;99.90;;;;;;5097904;28;20325;-71
2023/04/28 03:29:28;;;;;;;;;;;6.00;99.90;;;;;;5097095;28;19924;-72
2023/04/28 03:31:54;;;;;;;;;;;6.00;99.90;;;;;;5097252;28;19930;-72
2023/04/28 03:34:19;;;;;;;;;;;6.00;99.90;;;;;;5098256;28;20287;-71
2023/04/28 03:36:45;;;;;;;;;;;6.00;99.90;;;;;;5115337;28;19927;-71
2023/04/28 03:39:13;;;;;;;;;;;6.00;99.90;;;;;;5115522;28;19923;-71
2023/04/28 03:41:39;;;;;;;;;;;6.00;99.90;;;;;;5116237;28;20337;-71
2023/04/28 03:44:05;;;;;;;;;;;6.40;99.90;;;;;;5096632;28;19930;-72
2023/04/28 03:46:30;;;;;;;;;;;6.00;99.90;;;;;;5116027;28;19920;-72
2023/04/28 03:48:55;;;;;;;;;;;6.30;99.90;;;;;;5114319;28;20403;-72
2023/04/28 03:51:21;;;;;;;;;;;6.00;99.90;;;;;;5115544;28;19928;-71
2023/04/28 03:53:46;;;;;;;;;;;6.00;99.90;;;;;;5115512;28;19924;-71
2023/04/28 03:56:12;;;;;;;;;;;6.00;99.90;;;;;;5114807;28;19984;-72
2023/04/28 03:58:37;;;;;;;;;;;6.00;99.90;;;;;;5097121;28;20344;-71
2023/04/28 04:01:04;;;;;;;;;;;6.00;99.90;;;;;;5096844;28;19924;-72
2023/04/28 04:03:29;;;;;;;;;;;6.00;99.90;;;;;;5096911;28;19923;-72
2023/04/28 04:05:57;;;;;;;;;;;6.60;99.90;;;;;;5096894;28;19920;-72
2023/04/28 04:08:23;;;;;;;;;;;6.00;99.90;;;;;;5114861;28;19931;-72
2023/04/28 04:10:49;;;;;;;;;;;6.10;99.90;;;;;;5096241;28;19924;-72
2023/04/28 04:13:14;;;;;;;;;;;6.20;99.90;;;;;;5114564;28;19924;-71
2023/04/28 04:15:40;;;;;;;;;;;6.10;99.90;;;;;;5097037;28;20010;-72
2023/04/28 04:18:05;;;;;;;;;;;6.20;99.90;;;;;;5095711;28;19924;-71
2023/04/28 04:20:31;;;;;;;;;;;6.20;99.90;;;;;;5115050;28;19927;-71
2023/04/28 04:22:56;;;;;;;;;;;6.20;99.90;;;;;;5096056;28;20028;-72
2023/04/28 04:25:22;;;;;;;;;;;6.20;99.90;;;;;;5114013;28;20420;-71
2023/04/28 04:27:47;;;;;;;;;;;6.20;99.90;;;;;;5096669;28;20026;-71
2023/04/28 04:30:13;;;;;;;;;;;6.20;99.90;;;;;;5096436;28;19924;-71
2023/04/28 04:32:38;;;;;;;;;;;6.20;99.90;;;;;;5094960;28;19920;-71
2023/04/28 04:35:04;;;;;;;;;;;6.20;99.90;;;;;;5114634;28;20290;-71
2023/04/28 04:37:30;;;;;;;;;;;6.20;99.90;;;;;;5096605;28;20394;-72
2023/04/28 04:39:55;;;;;;;;;;;6.20;99.90;;;;;;5113708;28;20549;-71
2023/04/28 04:42:21;;;;;;;;;;;6.20;99.90;;;;;;5096524;28;20092;-71
2023/04/28 04:44:47;;;;;;;;;;;6.20;99.90;;;;;;5096785;28;20317;-71
2023/04/28 04:47:12;;;;;;;;;;;6.30;99.90;;;;;;5113632;28;20367;-71
2023/04/28 04:49:38;;;;;;;;;;;6.30;99.90;;;;;;5095964;28;19924;-71
2023/04/28 04:52:05;;;;;;;;;;;7.10;99.90;;;;;;5113313;28;19931;-72
2023/04/28 04:54:31;;;;;;;;;;;6.30;99.90;;;;;;5113921;28;19928;-72
2023/04/28 04:56:56;;;;;;;;;;;6.30;99.90;;;;;;5095616;28;19931;-72
2023/04/28 04:59:22;;;;;;;;;;;6.60;99.90;;;;;;5113354;28;19927;-72
2023/04/28 05:01:47;;;;;;;;;;;6.30;99.90;;;;;;5095695;28;19923;-71
2023/04/28 05:04:13;;;;;;;;;;;6.30;99.90;;;;;;5113635;28;20022;-71
2023/04/28 05:06:39;;;;;;;;;;;6.40;99.90;;;;;;5113019;28;19948;-71
2023/04/28 05:09:04;;;;;;;;;;;6.30;99.90;;;;;;5113756;28;20375;-71
2023/04/28 05:11:30;;;;;;;;;;;6.40;99.90;;;;;;5096011;28;19931;-71
2023/04/28 05:13:55;;;;;;;;;;;6.40;99.90;;;;;;5113343;28;19931;-71
2023/04/28 05:16:21;;;;;;;;;;;6.40;99.90;;;;;;5113749;28;19928;-71
2023/04/28 05:18:47;;;;;;;;;;;6.40;99.90;;;;;;5095949;28;20317;-72
2023/04/28 05:21:12;;;;;;;;;;;6.70;99.90;;;;;;5094421;28;19927;-71
2023/04/28 05:23:38;;;;;;;;;;;6.50;99.90;;;;;;5113732;28;20275;-70
2023/04/28 05:26:03;;;;;;;;;;;6.50;99.90;;;;;;5113355;28;19969;-71
2023/04/28 05:28:32;;;;;;;;;;;6.50;99.90;;;;;;5113278;28;19969;-71
2023/04/28 05:31:00;;;;;;;;;;;7.00;99.90;;;;;;5113442;28;20264;-71
2023/04/28 05:33:26;;;;;;;;;;;6.80;99.90;;;;;;5095439;28;19934;-72
2023/04/28 05:35:51;;;;;;;;;;;7.40;99.90;;;;;;5094418;28;20014;-72
2023/04/28 05:38:17;;;;;;;;;;;6.70;99.90;;;;;;5113810;28;19963;-72
2023/04/28 05:40:42;;;;;;;;;;;6.70;99.90;;;;;;5095425;28;20397;-72
2023/04/28 05:43:08;;;;;;;;;;;6.80;99.90;;;;;;5094187;28;19931;-72
2023/04/28 05:45:34;;;;;;;;;;;6.80;99.90;;;;;;5113362;28;20370;-72
2023/04/28 05:47:59;;;;;;;;;;;6.80;99.90;;;;;;5113128;28;20381;-73
2023/04/28 05:50:25;;;;;;;;;;;6.80;99.90;;;;;;5112656;28;19928;-73
2023/04/28 05:52:50;;;;;;;;;;;7.30;99.90;;;;;;5094670;28;19930;-73
2023/04/28 05:55:16;;;;;;;;;;;6.90;99.90;;;;;;5110159;28;19928;-73
2023/04/28 05:57:41;;;;;;;;;;;6.80;99.90;;;;;;5094552;28;19927;-73
2023/04/28 06:00:07;;;;;;;;;;;6.90;99.90;;;;;;5094557;28;20286;-71
2023/04/28 06:02:33;;;;;;;;;;;6.90;99.90;;;;;;5112371;28;19923;-72
2023/04/28 06:04:58;;;;;;;;;;;6.90;99.90;;;;;;5094423;28;19924;-72
2023/04/28 06:07:24;;;;;;;;;;;7.00;99.90;;;;;;5094627;28;20354;-76
2023/04/28 06:09:49;;;;;;;;;;;7.00;99.90;;;;;;5111248;28;20426;-72
2023/04/28 06:12:15;;;;;;;;;;;7.00;99.90;;;;;;5111910;28;19974;-73
2023/04/28 06:14:41;;;;;;;;;;;7.10;99.90;;;;;;5094975;28;20371;-72
2023/04/28 06:17:07;;;;;;;;;;;7.10;99.90;;;;;;5096859;28;19968;-72
2023/04/28 06:19:33;;;;;;;;;;;7.10;99.90;;;;;;5117308;28;19924;-72
2023/04/28 06:21:58;;;;;;;;;;;7.30;99.90;;;;;;5116784;28;19934;-73
2023/04/28 06:24:24;;;;;;;;;;;7.20;99.90;;;;;;5098295;28;19976;-72
2023/04/28 06:26:49;;;;;;;;;;;7.20;99.90;;;;;;5117000;28;19920;-72
2023/04/28 06:29:15;;;;;;;;;;;7.20;99.90;;;;;;5098331;28;20291;-72
2023/04/28 06:31:40;;;;;;;;;;;7.10;99.90;;;;;;5097771;28;19928;-74
2023/04/28 06:34:06;;;;;;;;;;;7.20;99.90;;;;;;5098632;28;20385;-73
2023/04/28 06:36:32;;;;;;;;;;;7.20;99.90;;;;;;5116489;28;19928;-72
2023/04/28 06:38:58;;;;;;;;;;;7.20;99.90;;;;;;5096222;28;20040;-72
2023/04/28 06:41:23;;;;;;;;;;;7.20;99.90;;;;;;5115930;28;20004;-71
2023/04/28 06:43:49;;;;;;;;;;;7.20;99.90;;;;;;5084023;28;19971;-72
2023/04/28 06:46:15;;;;;;;;;;;7.20;99.90;;;;;;5095638;28;20366;-72
2023/04/28 06:48:40;;;;;;;;;;;7.30;99.90;;;;;;5115801;28;19931;-73
2023/04/28 06:51:06;;;;;;;;;;;7.30;99.90;;;;;;5097920;28;20432;-77
2023/04/28 06:53:35;;;;;;;;;;;7.40;99.90;;;;;;5097408;28;19976;-74
2023/04/28 06:56:01;;;;;;;;;;;7.30;99.90;;;;;;5116206;28;20014;-73
2023/04/28 06:58:27;;;;;;;;;;;7.60;99.90;;;;;;5115637;28;19930;-74
2023/04/28 07:00:53;;;;;;;;;;;7.40;99.90;;;;;;5110512;28;19932;-78
2023/04/28 07:03:18;;;;;;;;;;;7.50;99.90;;;;;;5098344;28;20386;-78
2023/04/28 07:05:44;;;;;;;;;;;7.50;99.90;;;;;;5097667;28;20398;-76
2023/04/28 07:08:09;;;;;;;;;;;8.30;99.90;;;;;;5115415;28;20383;-74
2023/04/28 07:10:36;;;;;;;;;;;7.60;99.90;;;;;;5098011;28;20022;-79
2023/04/28 07:13:02;;;;;;;;;;;7.60;99.90;;;;;;5092697;28;20023;-76
2023/04/28 07:15:27;;;;;;;;;;;7.50;99.90;;;;;;5097521;28;20019;-76
2023/04/28 07:17:53;;;;;;;;;;;7.50;99.90;;;;;;5097109;28;20298;-77
2023/04/28 07:20:19;;;;;;;;;;;7.50;99.90;;;;;;5115017;28;19932;-73
2023/04/28 07:22:44;;;;;;;;;;;7.50;99.90;;;;;;5115348;28;19924;-81
2023/04/28 07:25:10;;;;;;;;;;;7.60;99.90;;;;;;5097360;28;19928;-79
2023/04/28 07:27:38;;;;;;;;;;;7.50;99.90;;;;;;5113637;28;20028;-79
2023/04/28 07:30:04;;;;;;;;;;;7.50;99.90;;;;;;5096960;28;20391;-77
2023/04/28 07:32:33;;;;;;;;;;;7.40;99.90;;;;;;5115992;28;20280;-75
2023/04/28 07:34:58;;;;;;;;;;;7.40;99.90;;;;;;5114526;28;19924;-74
2023/04/28 07:37:26;;;;;;;;;;;7.40;99.90;;;;;;5115899;28;19924;-76
2023/04/28 07:39:52;;;;;;;;;;;7.40;99.90;;;;;;5115407;28;19939;-76
2023/04/28 07:42:18;;;;;;;;;;;7.40;99.90;;;;;;5115674;28;20014;-79
2023/04/28 07:44:43;;;;;;;;;;;8.50;99.90;;;;;;5097811;28;19938;-77
2023/04/28 07:47:09;;;;;;;;;;;7.80;99.90;;;;;;5115625;28;19935;-77
2023/04/28 07:49:35;;;;;;;;;;;8.50;99.90;;;;;;5115205;28;19924;-78
2023/04/28 07:52:01;;;;;;;;;;;7.60;99.90;;;;;;5115346;28;20430;-79
2023/04/28 07:54:27;;;;;;;;;;;7.60;99.90;;;;;;5114632;28;20387;-77
2023/04/28 07:56:52;;;;;;;;;;;8.30;99.90;;;;;;5113502;28;19931;-77
2023/04/28 07:59:18;;;;;;;;;;;7.60;99.90;;;;;;5096278;28;19931;-73
2023/04/28 08:01:43;;;;;;;;;;;7.70;99.90;;;;;;5097517;28;20486;-77
2023/04/28 08:04:10;;;;;;;;;;;7.80;99.90;;;;;;5114108;28;19942;-79
2023/04/28 08:06:36;;;;;;;;;;;7.80;99.90;;;;;;5097072;28;19923;-78
2023/04/28 08:09:04;;;;;;;;;;;7.90;99.90;;;;;;5096595;28;19928;-76
2023/04/28 08:11:30;;;;;;;;;;;8.00;99.90;;;;;;5114075;28;19963;-79
2023/04/28 08:14:00;;;;;;;;;;;8.40;99.90;;;;;;5095657;28;19969;-80
2023/04/28 08:16:26;;;;;;;;;;;8.20;99.90;;;;;;5114484;28;20014;-78
2023/04/28 08:18:51;;;;;;;;;;;8.20;99.90;;;;;;5115070;28;20431;-78
2023/04/28 08:21:17;;;;;;;;;;;8.30;99.90;;;;;;5096460;28;19924;-80
2023/04/28 08:23:42;;;;;;;;;;;8.30;99.90;;;;;;5095839;28;19924;-86
2023/04/28 08:26:08;;;;;;;;;;;8.30;99.90;;;;;;5096893;28;20288;-80
2023/04/28 08:28:34;;;;;;;;;;;8.40;99.90;;;;;;5114806;28;19968;-77
2023/04/28 08:30:59;;;;;;;;;;;8.40;99.90;;;;;;5113712;28;19928;-84
2023/04/28 08:33:25;;;;;;;;;;;8.40;99.90;;;;;;5115497;28;19967;-78
2023/04/28 08:35:51;;;;;;;;;;;8.50;99.90;;;;;;5110056;28;20294;-77
2023/04/28 08:38:17;;;;;;;;;;;8.70;99.90;;;;;;5113342;28;19924;-78
2023/04/28 08:40:42;;;;;;;;;;;8.70;99.90;;;;;;5101194;28;20296;-75
2023/04/28 08:43:12;;;;;;;;;;;8.40;99.90;;;;;;5113979;28;19971;-74
2023/04/28 08:45:41;;;;;;;;;;;9.30;99.90;;;;;;5112754;28;19930;-74
2023/04/28 08:48:33;;;;;;;;;;;8.50;99.90;;;;;;5095237;28;19924;-75
2023/04/28 08:51:00;;;;;;;;;;;8.50;99.90;;;;;;5108860;28;19924;-75
2023/04/28 08:53:26;;;;;;;;;;;8.60;99.90;;;;;;5094804;28;20011;-72
2023/04/28 08:55:56;;;;;;;;;;;9.90;99.90;;;;;;5113521;28;19927;-71
2023/04/28 08:58:22;;;;;;;;;;;9.00;99.90;;;;;;5094504;28;19931;-74
2023/04/28 09:00:48;;;;;;;;;;;9.20;99.90;;;;;;5113008;28;20295;-73
2023/04/28 09:03:14;;;;;;;;;;;9.40;99.90;;;;;;5087563;28;19924;-77
2023/04/28 09:05:39;;;;;;;;;;;9.60;99.90;;;;;;5108133;27;20011;-72
2023/04/28 09:08:05;;;;;;;;;;;10.80;99.90;;;;;;5099371;27;19924;-75
2023/04/28 09:10:30;;;;;;;;;;;10.00;99.90;;;;;;5109684;27;20315;-74
2023/04/28 09:12:57;;;;;;;;;;;10.10;99.90;;;;;;5099360;27;19931;-77
2023/04/28 09:15:36;;;;;;;;;;;10.30;99.90;;;;;;5093206;28;19963;-71
2023/04/28 09:18:03;;;;;;;;;;;10.40;99.90;;;;;;5094709;28;19924;-71
2023/04/28 09:20:29;;;;;;;;;;;10.30;99.90;;;;;;5109079;27;20033;-72
2023/04/28 09:22:55;;;;;;;;;;;10.30;99.90;;;;;;5114730;27;20514;-72
2023/04/28 09:25:22;;;;;;;;;;;10.30;99.90;;;;;;5098589;27;19929;-73
2023/04/28 09:27:47;;;;;;;;;;;10.40;99.90;;;;;;5087672;28;19924;-71
2023/04/28 09:30:13;;;;;;;;;;;10.70;99.90;;;;;;5106470;27;19939;-75
2023/04/28 09:32:39;;;;;;;;;;;10.90;99.90;;;;;;5112598;27;20287;-76
2023/04/28 09:35:06;;;;;;;;;;;11.10;99.90;;;;;;5082582;28;20420;-75
2023/04/28 09:37:32;;;;;;;;;;;11.10;99.90;;;;;;5079077;28;20371;-73
2023/04/28 09:40:03;;;;;;;;;;;11.00;99.90;;;;;;5093806;27;19978;-72
2023/04/28 09:42:33;;;;;;;;;;;10.90;99.90;;;;;;5095892;27;19985;-72
2023/04/28 09:44:58;;;;;;;;;;;10.80;99.90;;;;;;5104233;27;19985;-74
2023/04/28 09:47:24;;;;;;;;;;;10.60;99.90;;;;;;5099822;28;19928;-74
2023/04/28 09:49:54;;;;;;;;;;;10.40;99.90;;;;;;5100025;27;20367;-79
2023/04/28 09:52:20;;;;;;;;;;;10.30;99.90;;;;;;5092474;28;19924;-74
2023/04/28 09:54:48;;;;;;;;;;;10.10;99.90;;;;;;5085692;28;19935;-72
2023/04/28 09:57:14;;;;;;;;;;;10.10;99.90;;;;;;5112568;28;19924;-77
2023/04/28 09:59:41;;;;;;;;;;;10.00;99.90;;;;;;5113413;28;19923;-76
2023/04/28 10:02:07;;;;;;;;;;;10.00;99.90;;;;;;5112219;28;19923;-76
2023/04/28 10:04:33;;;;;;;;;;;10.10;99.90;;;;;;5095068;28;20340;-77
2023/04/28 10:07:00;;;;;;;;;;;9.80;99.90;;;;;;5112371;28;19935;-77
2023/04/28 10:09:27;;;;;;;;;;;9.90;99.90;;;;;;5094480;28;20006;-75
2023/04/28 10:11:53;;;;;;;;;;;9.90;99.90;;;;;;5094431;28;20411;-74
2023/04/28 10:14:19;;;;;;;;;;;10.10;99.90;;;;;;5113286;28;19992;-77
2023/04/28 10:16:44;;;;;;;;;;;9.90;99.90;;;;;;5111933;28;19974;-75
2023/04/28 10:19:11;;;;;;;;;;;9.90;99.90;;;;;;5112907;28;19978;-73
2023/04/28 10:21:40;;;;;;;;;;;10.00;99.90;;;;;;5095230;28;19924;-74
2023/04/28 10:24:21;;;;;;;;;;;9.80;99.90;;;;;;5094704;28;20301;-73
2023/04/28 10:26:50;;;;;;;;;;;9.90;99.90;;;;;;5113068;28;20310;-74
2023/04/28 10:29:23;;;;;;;;;;;10.00;99.90;;;;;;5094898;28;20014;-74
2023/04/28 10:32:07;;;;;;;;;;;10.00;99.90;;;;;;5093966;28;20412;-73
2023/04/28 10:34:32;;;;;;;;;;;10.10;99.90;;;;;;5095088;28;19928;-75
2023/04/28 10:36:59;;;;;;;;;;;10.20;99.90;;;;;;5112425;28;20406;-73
2023/04/28 10:39:24;;;;;;;;;;;10.30;99.90;;;;;;5113014;28;19923;-74
2023/04/28 10:41:50;;;;;;;;;;;10.10;99.90;;;;;;5094702;28;19958;-75
2023/04/28 10:44:28;;;;;;;;;;;10.10;99.90;;;;;;5093924;28;20432;-75
2023/04/28 10:47:03;;;;;;;;;;;10.10;99.90;;;;;;5111917;28;20010;-75
2023/04/28 10:49:47;;;;;;;;;;;10.10;99.90;;;;;;5110780;28;19924;-76
2023/04/28 10:52:31;;;;;;;;;;;10.10;99.90;;;;;;5093411;28;20076;-76
2023/04/28 10:55:20;;;;;;;;;;;10.00;99.90;;;;;;5094639;28;19988;-76
2023/04/28 10:57:46;;;;;;;;;;;10.00;99.90;;;;;;5112491;28;19928;-75
2023/04/28 11:00:27;;;;;;;;;;;9.80;99.90;;;;;;5111643;28;20353;-75
2023/04/28 11:02:53;;;;;;;;;;;9.90;99.90;;;;;;5095225;28;19923;-75
2023/04/28 11:05:18;;;;;;;;;;;9.90;99.90;;;;;;5115071;28;19928;-75
2023/04/28 11:08:23;;;;;;;;;;;9.90;99.90;;;;;;5098260;28;19947;-75
2023/04/28 11:11:07;;;;;;;;;;;10.00;99.90;;;;;;5033740;28;19968;-76
2023/04/28 11:13:33;;;;;;;;;;;10.00;99.90;;;;;;5016006;28;19929;-76
2023/04/28 11:16:03;;;;;;;;;;;10.00;99.90;;;;;;5049301;28;20010;-75
2023/04/28 11:18:28;;;;;;;;;;;10.00;99.90;;;;;;5078022;28;19924;-76
2023/04/28 11:20:56;;;;;;;;;;;10.00;99.90;;;;;;5076712;28;19924;-76
2023/04/28 11:23:23;;;;;;;;;;;9.90;99.90;;;;;;5095662;28;19928;-76
2023/04/28 11:25:52;;;;;;;;;;;10.00;99.90;;;;;;5077956;28;19920;-76
2023/04/28 11:28:18;;;;;;;;;;;10.00;99.90;;;;;;5085948;28;19924;-76
2023/04/28 11:30:44;;;;;;;;;;;9.90;99.90;;;;;;5116330;28;19931;-75
2023/04/28 11:33:10;;;;;;;;;;;9.90;99.90;;;;;;5096819;28;19974;-76
2023/04/28 11:35:42;;;;;;;;;;;9.90;99.90;;;;;;5116037;28;20068;-76
2023/04/28 11:38:07;;;;;;;;;;;10.00;99.90;;;;;;5097257;28;19976;-76
2023/04/28 11:40:33;;;;;;;;;;;10.10;99.90;;;;;;5115307;28;20006;-76
2023/04/28 11:42:59;;;;;;;;;;;10.20;99.90;;;;;;5097280;28;19931;-76
2023/04/28 11:45:25;;;;;;;;;;;10.60;99.90;;;;;;5097598;28;19930;-76
2023/04/28 11:47:51;;;;;;;;;;;10.90;99.90;;;;;;5114554;28;19924;-76
2023/04/28 11:50:16;;;;;;;;;;;11.20;99.90;;;;;;5097759;28;19966;-77
2023/04/28 11:52:48;;;;;;;;;;;11.40;99.90;;;;;;5097283;28;19981;-76
2023/04/28 11:55:15;;;;;;;;;;;11.50;99.90;;;;;;5114898;28;19960;-76
2023/04/28 11:57:41;;;;;;;;;;;11.80;99.90;;;;;;5115748;28;19924;-76
2023/04/28 12:00:13;;;;;;;;;;;11.70;99.90;;;;;;5115340;28;19924;-76
2023/04/28 12:02:39;;;;;;;;;;;11.80;99.90;;;;;;5114367;28;19947;-76
2023/04/28 12:05:08;;;;;;;;;;;12.00;99.90;;;;;;5115174;28;20395;-76
2023/04/28 12:07:44;;;;;;;;;;;12.00;99.90;;;;;;5115163;28;20371;-76
2023/04/28 12:10:14;;;;;;;;;;;12.00;99.90;;;;;;5114454;28;20002;-76
2023/04/28 12:12:41;;;;;;;;;;;12.10;99.90;;;;;;5096917;28;20321;-76
2023/04/28 12:15:07;;;;;;;;;;;12.10;99.90;;;;;;5114848;28;19928;-76
2023/04/28 12:17:37;;;;;;;;;;;12.00;99.90;;;;;;5095636;28;19927;-76
2023/04/28 12:20:23;;;;;;;;;;;11.90;99.90;;;;;;5114401;28;19924;-76
2023/04/28 12:22:49;;;;;;;;;;;11.90;99.90;;;;;;5094638;28;19968;-76
2023/04/28 12:25:16;;;;;;;;;;;11.90;99.90;;;;;;5114251;28;19923;-76
2023/04/28 12:27:57;;;;;;;;;;;11.60;99.90;;;;;;5096622;28;19924;-76
2023/04/28 12:30:23;;;;;;;;;;;11.50;99.90;;;;;;5114591;28;19924;-76
2023/04/28 12:32:49;;;;;;;;;;;11.40;99.90;;;;;;5096301;28;20291;-76
2023/04/28 12:35:14;;;;;;;;;;;11.30;99.90;;;;;;5096014;28;19924;-75
2023/04/28 12:37:43;;;;;;;;;;;11.30;99.90;;;;;;5095591;28;19935;-76
2023/04/28 12:40:09;;;;;;;;;;;11.20;99.90;;;;;;5114684;28;19923;-76
2023/04/28 12:42:35;;;;;;;;;;;11.20;99.90;;;;;;5096487;28;20024;-76
2023/04/28 12:45:00;;;;;;;;;;;11.00;99.90;;;;;;5095363;28;19924;-77
2023/04/28 12:47:26;;;;;;;;;;;11.10;99.90;;;;;;5096389;28;19923;-76
2023/04/28 12:49:52;;;;;;;;;;;11.00;99.90;;;;;;5113634;28;19993;-76
2023/04/28 12:52:21;;;;;;;;;;;11.00;99.90;;;;;;5095240;28;19985;-76
2023/04/28 12:54:47;;;;;;;;;;;11.20;99.90;;;;;;5093404;28;19924;-74
2023/04/28 12:57:17;;;;;;;;;;;11.20;99.90;;;;;;5095912;28;19928;-74
2023/04/28 12:59:43;;;;;;;;;;;11.20;99.90;;;;;;5108083;28;20381;-75
2023/04/28 13:02:08;;;;;;;;;;;11.30;99.90;;;;;;5095227;28;20014;-75
2023/04/28 13:04:36;;;;;;;;;;;11.40;99.90;;;;;;5113130;28;19928;-75
2023/04/28 13:07:02;;;;;;;;;;;11.30;99.90;;;;;;5113751;28;19988;-76
2023/04/28 13:09:28;;;;;;;;;;;11.30;99.90;;;;;;5095439;28;19928;-78
2023/04/28 13:11:54;;;;;;;;;;;11.30;99.90;;;;;;5094783;28;20051;-77
2023/04/28 13:14:19;;;;;;;;;;;11.30;99.90;;;;;;5113215;28;20324;-79
2023/04/28 13:16:45;;;;;;;;;;;11.30;99.90;;;;;;5095557;28;19935;-74
2023/04/28 13:19:13;;;;;;;;;;;11.20;99.90;;;;;;5094070;28;19942;-75
2023/04/28 13:21:42;;;;;;;;;;;11.20;99.90;;;;;;5095617;28;20290;-75
2023/04/28 13:24:08;;;;;;;;;;;11.20;99.90;;;;;;5092768;28;19924;-75
2023/04/28 13:26:34;;;;;;;;;;;11.10;99.90;;;;;;5112370;28;19931;-77
2023/04/28 13:29:01;;;;;;;;;;;11.00;99.90;;;;;;5094708;28;20018;-77
2023/04/28 13:31:27;;;;;;;;;;;10.90;99.90;;;;;;5110608;28;20385;-79
2023/04/28 13:33:52;;;;;;;;;;;10.80;99.90;;;;;;5089925;28;19928;-75
2023/04/28 13:36:18;;;;;;;;;;;10.80;99.90;;;;;;5112930;28;19924;-74
2023/04/28 13:38:47;;;;;;;;;;;11.00;99.90;;;;;;5112039;28;20266;-73
2023/04/28 13:41:13;;;;;;;;;;;10.90;99.90;;;;;;5092621;28;19928;-73
2023/04/28 13:43:39;;;;;;;;;;;11.00;99.90;;;;;;5093969;28;19933;-73
2023/04/28 13:46:07;;;;;;;;;;;11.10;99.90;;;;;;5094079;28;20014;-73
2023/04/28 13:48:34;;;;;;;;;;;11.10;99.90;;;;;;5111538;28;20395;-73
2023/04/28 13:50:59;;;;;;;;;;;11.10;99.90;;;;;;5112634;28;19924;-73
2023/04/28 13:53:25;;;;;;;;;;;11.00;99.90;;;;;;5094455;28;20396;-71
2023/04/28 13:55:52;;;;;;;;;;;10.90;99.90;;;;;;5093234;28;19924;-77
2023/04/28 13:58:21;;;;;;;;;;;10.80;99.90;;;;;;5093779;28;19928;-76
2023/04/28 14:00:46;;;;;;;;;;;10.70;99.90;;;;;;5112372;28;20018;-71
2023/04/28 14:03:12;;;;;;;;;;;10.70;99.90;;;;;;5093392;28;19931;-73
2023/04/28 14:05:37;;;;;;;;;;;10.70;99.90;;;;;;5093893;28;19924;-73
2023/04/28 14:08:03;;;;;;;;;;;10.70;99.90;;;;;;5092241;28;19924;-73
2023/04/28 14:10:29;;;;;;;;;;;10.70;99.90;;;;;;5112104;28;19924;-73
2023/04/28 14:12:55;;;;;;;;;;;10.70;99.90;;;;;;5093918;28;20014;-72
2023/04/28 14:15:20;;;;;;;;;;;10.80;99.90;;;;;;5093309;28;20007;-73
2023/04/28 14:17:47;;;;;;;;;;;11.20;99.90;;;;;;5091907;28;19973;-73
2023/04/28 14:20:13;;;;;;;;;;;10.70;99.90;;;;;;5111311;28;19984;-74
2023/04/28 14:22:39;;;;;;;;;;;10.70;99.90;;;;;;5088993;28;20010;-77